Time;durP1;ratioP1;P1;durP2;ratioP2;P2;SDS_P1;SDS_P2;PMS_P1;PMS_P2;Temp;Humidity;BMP_temperature;BMP_pressure;BME280_temperature;BME280_humidity;BME280_pressure;Samples;Min_cycle;Max_cycle;Signal;HPM_P1;HPM_P2
2022/05/19 09:48:58;;;;;;;9.32;6.50;;;16.70;99.90;;;;;;5079870;28;20387;-52
2022/05/19 09:51:30;;;;;;;10.00;6.05;;;16.70;99.90;;;;;;5069394;28;20125;-51
2022/05/19 09:53:57;;;;;;;10.52;5.43;;;16.80;99.90;;;;;;5057767;28;20111;-53
2022/05/19 09:56:24;;;;;;;8.45;5.07;;;17.00;99.90;;;;;;5060788;28;20526;-53
2022/05/19 09:58:51;;;;;;;7.40;4.50;;;17.10;99.90;;;;;;5055843;28;20045;-50
2022/05/19 10:01:17;;;;;;;8.75;3.22;;;17.20;99.90;;;;;;5057541;28;20044;-54
2022/05/19 10:03:44;;;;;;;5.82;3.25;;;17.10;99.90;;;;;;5049876;28;20033;-55
2022/05/19 10:06:11;;;;;;;5.82;3.20;;;17.10;99.90;;;;;;5056064;28;20041;-55
2022/05/19 10:08:39;;;;;;;6.47;3.03;;;17.20;99.90;;;;;;5069682;28;20072;-51
2022/05/19 10:11:06;;;;;;;4.93;2.92;;;17.40;99.90;;;;;;5050010;28;20034;-50
2022/05/19 10:13:32;;;;;;;6.50;2.45;;;17.60;99.90;;;;;;5049959;28;20484;-53
2022/05/19 10:15:59;;;;;;;5.00;2.28;;;17.70;99.90;;;;;;5062357;28;20048;-54
2022/05/19 10:18:26;;;;;;;6.10;2.45;;;18.00;99.90;;;;;;5050467;28;20044;-51
2022/05/19 10:20:53;;;;;;;6.20;2.70;;;18.20;99.90;;;;;;5050392;28;20100;-56
2022/05/19 10:23:22;;;;;;;7.93;2.95;;;18.00;99.90;;;;;;5062352;28;20037;-56
2022/05/19 10:25:49;;;;;;;7.50;3.10;;;17.80;99.90;;;;;;5049925;28;20411;-50
2022/05/19 10:31:04;;;;;;;8.90;3.05;;;17.50;99.90;;;;;;5055819;28;20049;-49
2022/05/19 10:33:39;;;;;;;7.93;2.80;;;17.40;99.90;;;;;;5053034;28;20045;-50
2022/05/19 10:36:05;;;;;;;6.28;2.88;;;17.40;99.90;;;;;;5057690;28;20041;-48
2022/05/19 10:38:32;;;;;;;9.00;2.78;;;17.50;99.90;;;;;;5067472;28;20128;-54
2022/05/19 10:40:59;;;;;;;5.57;2.22;;;17.60;99.90;;;;;;5059916;28;20045;-56
2022/05/19 10:43:27;;;;;;;8.45;2.17;;;17.70;99.90;;;;;;5051286;28;20041;-54
2022/05/19 10:45:54;;;;;;;5.57;2.25;;;17.90;99.90;;;;;;5068997;28;20336;-55
2022/05/19 10:48:20;;;;;;;7.88;2.40;;;18.10;99.90;;;;;;5068595;28;20052;-51
2022/05/19 10:50:47;;;;;;;7.40;2.10;;;18.20;99.90;;;;;;5068007;28;20564;-53
2022/05/19 10:53:14;;;;;;;5.28;1.55;;;18.20;99.50;;;;;;5058911;28;20487;-50
2022/05/19 10:55:41;;;;;;;4.75;1.60;;;18.10;98.60;;;;;;5049654;28;20095;-51
2022/05/19 10:58:08;;;;;;;7.22;2.10;;;18.00;98.00;;;;;;5049069;28;20057;-53
2022/05/19 11:00:35;;;;;;;3.85;1.80;;;17.90;98.60;;;;;;5035849;28;20042;-50
2022/05/19 11:03:02;;;;;;;5.45;1.95;;;17.90;99.70;;;;;;5036127;28;20046;-51
2022/05/19 11:05:29;;;;;;;5.68;1.80;;;18.00;98.10;;;;;;5036246;28;20042;-53
2022/05/19 11:07:56;;;;;;;7.40;2.05;;;18.00;99.10;;;;;;5037420;28;20484;-51
2022/05/19 11:10:22;;;;;;;8.80;1.77;;;18.10;99.00;;;;;;5055198;28;20545;-55
2022/05/19 11:12:49;;;;;;;6.22;2.08;;;18.10;98.40;;;;;;5055074;28;20045;-48
2022/05/19 11:15:16;;;;;;;4.80;1.92;;;18.10;99.30;;;;;;5040906;28;20392;-54
2022/05/19 11:17:44;;;;;;;4.18;1.65;;;18.00;97.80;;;;;;5035912;28;20042;-51
2022/05/19 11:20:11;;;;;;;5.43;1.92;;;17.90;97.90;;;;;;5044134;28;20515;-53
2022/05/19 11:22:38;;;;;;;4.50;1.40;;;17.90;97.70;;;;;;5054882;28;20040;-51
2022/05/19 11:27:50;;;;;;;5.95;1.50;;;18.00;98.10;;;;;;5055558;28;20029;-51
2022/05/19 11:30:17;;;;;;;7.15;1.85;;;18.00;96.70;;;;;;5045309;28;20455;-51
2022/05/19 11:32:43;;;;;;;7.90;2.15;;;18.10;97.60;;;;;;5038636;28;20033;-48
2022/05/19 11:35:12;;;;;;;7.72;1.70;;;18.20;96.90;;;;;;5054077;28;20087;-52
2022/05/19 11:37:39;;;;;;;6.68;2.05;;;18.40;96.80;;;;;;5046489;28;20048;-53
2022/05/19 11:40:11;;;;;;;7.07;1.80;;;18.50;96.40;;;;;;5035538;28;20500;-55
2022/05/19 11:42:38;;;;;;;7.90;2.10;;;18.60;95.10;;;;;;5035583;28;20095;-54
2022/05/19 11:45:05;;;;;;;7.55;2.30;;;18.50;94.70;;;;;;5044606;28;20507;-54
2022/05/19 11:55:48;;;;;;;;;;;18.50;93.40;;;;;;5053530;28;20083;-51
2022/05/19 11:58:20;;;;;;;7.00;2.20;;;18.50;93.30;;;;;;5054271;28;19921;-52
2022/05/19 12:00:47;;;;;;;9.57;1.80;;;18.50;92.90;;;;;;5051685;28;20051;-51
2022/05/19 12:03:14;;;;;;;7.18;2.00;;;18.50;93.50;;;;;;5035035;28;20046;-57
2022/05/19 12:05:43;;;;;;;9.32;2.20;;;18.50;92.90;;;;;;5034923;28;20046;-51
2022/05/19 12:08:10;;;;;;;5.50;1.83;;;18.50;93.70;;;;;;5040456;28;20049;-52
2022/05/19 12:10:37;;;;;;;8.00;1.98;;;18.70;92.40;;;;;;5034165;28;20045;-51
2022/05/19 12:13:04;;;;;;;6.97;1.98;;;18.80;92.10;;;;;;5051986;28;20075;-55
2022/05/19 12:15:31;;;;;;;4.20;1.48;;;18.90;90.40;;;;;;5054095;28;20421;-52
2022/05/19 12:17:57;;;;;;;4.80;1.63;;;19.00;91.30;;;;;;5054116;28;20094;-50
2022/05/19 12:20:24;;;;;;;10.18;2.05;;;19.20;91.40;;;;;;5043610;28;20045;-52
2022/05/19 12:22:51;;;;;;;6.90;1.88;;;19.30;90.70;;;;;;5053786;28;20041;-53
2022/05/19 12:25:18;;;;;;;5.32;1.50;;;19.30;90.80;;;;;;5055352;28;20033;-51
2022/05/19 12:27:45;;;;;;;6.18;2.05;;;19.30;91.00;;;;;;5047054;28;20099;-53
2022/05/19 15:57:57;;;;;;;5.15;1.50;;;22.90;65.70;;;;;;5066319;28;20460;-51
2022/05/19 16:00:24;;;;;;;4.82;1.40;;;23.40;68.00;;;;;;5054423;28;20479;-53
2022/05/19 16:02:51;;;;;;;3.55;1.17;;;23.90;67.60;;;;;;5036819;28;20045;-52
2022/05/19 16:05:18;;;;;;;5.88;1.17;;;24.40;66.20;;;;;;5036008;28;20052;-52
2022/05/19 16:07:46;;;;;;;3.97;1.40;;;24.90;64.90;;;;;;5035108;28;20040;-50
2022/05/19 16:10:13;;;;;;;3.08;1.20;;;25.20;63.90;;;;;;5035458;28;20037;-54
2022/05/19 16:12:40;;;;;;;4.32;1.30;;;25.30;61.70;;;;;;5035489;28;20052;-49
2022/05/19 16:15:08;;;;;;;4.10;1.25;;;25.00;64.20;;;;;;5031358;28;20558;-52
2022/05/19 16:17:35;;;;;;;5.13;1.30;;;25.00;61.30;;;;;;5049348;28;20047;-53
2022/05/19 19:07:47;;;;;;;6.93;2.03;;;19.70;84.40;;;;;;5099391;27;1295990;-52
2022/05/19 19:10:14;;;;;;;8.90;2.40;;;19.50;84.10;;;;;;5123080;28;20049;-53
2022/05/19 19:12:40;;;;;;;8.20;2.13;;;19.50;84.50;;;;;;5131298;28;20744;-51
2022/05/19 19:15:07;;;;;;;7.63;2.10;;;19.40;84.70;;;;;;5129610;27;20044;-52
2022/05/19 19:17:34;;;;;;;9.77;2.45;;;19.40;84.90;;;;;;5124379;28;20446;-50
2022/05/19 19:20:01;;;;;;;6.78;2.22;;;19.40;85.10;;;;;;5126265;28;20092;-53
2022/05/19 19:22:28;;;;;;;7.35;2.05;;;19.40;84.80;;;;;;5113484;28;20409;-51
2022/05/19 19:24:55;;;;;;;9.20;2.38;;;19.40;84.80;;;;;;5131099;27;20049;-49
2022/05/19 19:27:22;;;;;;;9.40;2.38;;;19.30;84.70;;;;;;5129280;28;20051;-57
2022/05/19 19:29:49;;;;;;;6.57;1.80;;;19.30;84.00;;;;;;5111304;28;20040;-52
2022/05/19 19:32:16;;;;;;;9.52;2.17;;;19.30;84.00;;;;;;5109733;28;20446;-55
2022/05/19 19:34:43;;;;;;;8.10;1.73;;;19.20;84.30;;;;;;5110233;28;20117;-49
2022/05/19 19:37:11;;;;;;;8.18;2.03;;;19.20;83.90;;;;;;5110884;28;20066;-53
2022/05/19 19:39:38;;;;;;;11.63;2.33;;;19.10;83.90;;;;;;5110933;28;20059;-52
2022/05/19 19:42:05;;;;;;;8.65;1.83;;;19.00;84.30;;;;;;5110832;28;20101;-52
2022/05/19 19:44:31;;;;;;;6.72;1.70;;;19.00;84.30;;;;;;5110795;28;20044;-54
2022/05/19 19:46:58;;;;;;;10.15;2.30;;;18.90;84.20;;;;;;5110866;28;20032;-51
2022/05/19 19:49:26;;;;;;;7.68;2.13;;;18.90;84.20;;;;;;5110811;28;20031;-54
2022/05/19 19:51:57;;;;;;;7.57;1.90;;;18.80;83.30;;;;;;5110515;28;20059;-54
2022/05/19 19:54:27;;;;;;;8.20;2.08;;;18.70;82.90;;;;;;5110220;28;20527;-52
2022/05/19 19:56:57;;;;;;;6.32;1.70;;;18.60;83.00;;;;;;5110607;28;20043;-52
2022/05/19 19:59:24;;;;;;;11.52;2.17;;;18.50;83.10;;;;;;5109678;28;20496;-57
2022/05/19 20:01:51;;;;;;;10.77;2.30;;;18.50;83.70;;;;;;5109355;28;20048;-48
2022/05/19 20:04:18;;;;;;;7.65;2.00;;;18.50;84.20;;;;;;5110452;28;20044;-51
2022/05/19 20:06:44;;;;;;;9.20;2.50;;;18.50;84.80;;;;;;5109250;28;20473;-50
2022/05/19 20:09:11;;;;;;;8.52;2.00;;;18.40;83.90;;;;;;5110582;28;20047;-51
2022/05/19 20:11:38;;;;;;;7.20;1.73;;;18.40;85.10;;;;;;5110262;28;20043;-49
2022/05/19 20:14:05;;;;;;;9.88;2.17;;;18.40;84.40;;;;;;5109444;28;20040;-52
2022/05/19 20:16:31;;;;;;;5.68;1.80;;;18.40;84.20;;;;;;5110165;28;20066;-50
2022/05/19 20:18:58;;;;;;;6.47;2.00;;;18.30;84.10;;;;;;5097110;28;20093;-55
2022/05/19 20:21:27;;;;;;;9.80;1.83;;;18.30;84.00;;;;;;5109719;28;20042;-52
2022/05/19 20:23:54;;;;;;;9.10;1.80;;;18.30;82.50;;;;;;5095693;28;20052;-50
2022/05/19 20:26:21;;;;;;;7.13;2.28;;;18.20;82.70;;;;;;5096496;28;20044;-52
2022/05/19 20:28:48;;;;;;;6.47;2.15;;;18.20;81.80;;;;;;5096516;28;20115;-49
2022/05/19 20:31:15;;;;;;;9.30;2.00;;;18.10;81.70;;;;;;5095507;28;20040;-51
2022/05/19 20:33:45;;;;;;;5.25;1.65;;;18.00;80.80;;;;;;5096193;28;20044;-48
2022/05/19 20:36:12;;;;;;;11.23;1.40;;;18.00;81.10;;;;;;5094959;28;20047;-51
2022/05/19 20:38:39;;;;;;;5.38;1.60;;;17.90;80.30;;;;;;5096008;28;20117;-49
2022/05/19 20:41:06;;;;;;;5.93;1.85;;;17.90;79.90;;;;;;5096138;28;20130;-48
2022/05/19 20:43:34;;;;;;;10.68;1.60;;;17.80;78.80;;;;;;5095432;28;20436;-52
2022/05/19 20:46:00;;;;;;;10.65;1.75;;;17.70;78.60;;;;;;5096062;28;20140;-49
2022/05/19 20:48:27;;;;;;;6.80;1.60;;;17.70;78.70;;;;;;5096246;28;20042;-47
2022/05/19 20:50:57;;;;;;;5.72;1.60;;;17.60;77.80;;;;;;5095039;28;20043;-51
2022/05/19 20:53:23;;;;;;;5.45;1.50;;;17.60;77.80;;;;;;5115398;28;20032;-54
2022/05/19 20:55:50;;;;;;;8.57;1.80;;;17.50;77.40;;;;;;5112953;28;20486;-52
2022/05/19 20:58:17;;;;;;;5.97;1.60;;;17.50;76.40;;;;;;5089490;28;20043;-50
2022/05/19 21:00:44;;;;;;;5.25;1.23;;;17.50;76.90;;;;;;5089434;28;20097;-53
2022/05/19 21:03:10;;;;;;;5.72;1.65;;;17.40;75.80;;;;;;5102411;28;20044;-51
2022/05/19 21:05:37;;;;;;;5.47;1.52;;;17.30;76.00;;;;;;5114864;28;20039;-51
2022/05/19 21:08:04;;;;;;;4.80;1.50;;;17.30;75.40;;;;;;5108223;28;20036;-51
2022/05/19 21:10:31;;;;;;;4.97;1.50;;;17.30;75.10;;;;;;5115022;28;20067;-52
2022/05/19 21:12:58;;;;;;;3.83;1.10;;;17.30;75.50;;;;;;5094231;28;20458;-51
2022/05/19 21:15:25;;;;;;;5.70;1.38;;;17.20;76.00;;;;;;5094155;28;20036;-54
2022/05/19 21:17:52;;;;;;;3.78;1.23;;;17.20;76.10;;;;;;5094007;28;20047;-50
2022/05/19 21:20:19;;;;;;;5.10;1.30;;;17.20;76.40;;;;;;5094630;28;20127;-46
2022/05/19 21:22:45;;;;;;;5.15;1.60;;;17.10;76.40;;;;;;5095363;28;20044;-51
